Time;durP1;ratioP1;P1;durP2;ratioP2;P2;SDS_P1;SDS_P2;PMS_P1;PMS_P2;Temp;Humidity;BMP_temperature;BMP_pressure;BME280_temperature;BME280_humidity;BME280_pressure;Samples;Min_cycle;Max_cycle;Signal;HPM_P1;HPM_P2
2024/04/01 00:01:20;;;;;;;2.60;0.98;;;;;;;;;;5030810;28;20280;-69
2024/04/01 00:03:45;;;;;;;0.77;0.50;;;;;;;;;;5031163;28;20022;-68
2024/04/01 00:06:10;;;;;;;2.33;1.02;;;;;;;;;;5030713;28;20300;-68
2024/04/01 00:08:35;;;;;;;2.70;0.77;;;;;;;;;;5030888;28;20018;-68
2024/04/01 00:11:01;;;;;;;1.75;0.98;;;;;;;;;;5030138;28;20075;-68
2024/04/01 00:13:26;;;;;;;2.37;0.60;;;;;;;;;;5030273;28;20036;-68
2024/04/01 00:15:51;;;;;;;2.35;0.80;;;;;;;;;;5032780;28;20347;-69
2024/04/01 00:18:16;;;;;;;3.47;0.68;;;;;;;;;;5031670;28;20021;-69
2024/04/01 00:20:41;;;;;;;1.20;0.47;;;;;;;;;;5029088;28;20496;-68
2024/04/01 00:23:07;;;;;;;0.57;0.40;;;;;;;;;;5026407;28;20026;-68
2024/04/01 00:25:32;;;;;;;1.05;0.77;;;;;;;;;;5028751;28;20086;-69
2024/04/01 00:27:58;;;;;;;3.97;0.50;;;;;;;;;;5030685;28;20017;-69
2024/04/01 00:30:23;;;;;;;1.33;0.80;;;;;;;;;;5030329;28;20029;-68
2024/04/01 00:32:48;;;;;;;2.03;0.57;;;;;;;;;;5030298;28;20029;-69
2024/04/01 00:35:15;;;;;;;6.00;0.80;;;;;;;;;;5030330;28;20268;-68
2024/04/01 00:37:40;;;;;;;2.05;0.50;;;;;;;;;;5030557;28;20037;-68
2024/04/01 00:40:06;;;;;;;0.90;0.47;;;;;;;;;;5028988;28;20036;-68
2024/04/01 00:42:31;;;;;;;0.73;0.50;;;;;;;;;;5028811;28;20060;-68
2024/04/01 00:44:57;;;;;;;3.30;0.67;;;;;;;;;;5030877;28;20087;-68
2024/04/01 00:47:22;;;;;;;0.82;0.50;;;;;;;;;;5028428;28;20260;-68
2024/04/01 00:49:48;;;;;;;0.80;0.50;;;;;;;;;;5030017;28;20152;-68
2024/04/01 00:52:15;;;;;;;0.95;0.47;;;;;;;;;;5030090;28;20088;-68
2024/04/01 00:54:41;;;;;;;0.93;0.47;;;;;;;;;;5029277;28;20112;-68
2024/04/01 00:57:06;;;;;;;2.70;1.00;;;;;;;;;;5025785;28;20459;-68
2024/04/01 00:59:32;;;;;;;1.10;0.65;;;;;;;;;;5029293;28;20032;-68
2024/04/01 01:01:57;;;;;;;2.25;0.98;;;;;;;;;;5029938;28;20048;-69
2024/04/01 01:04:22;;;;;;;0.70;0.45;;;;;;;;;;5029713;28;20018;-68
2024/04/01 01:06:48;;;;;;;1.90;0.57;;;;;;;;;;5030350;28;20028;-68
2024/04/01 01:09:13;;;;;;;1.13;0.38;;;;;;;;;;5028801;28;20412;-68
2024/04/01 01:11:39;;;;;;;0.98;0.73;;;;;;;;;;5029605;28;20397;-68
2024/04/01 01:14:04;;;;;;;5.95;0.80;;;;;;;;;;5029929;28;20049;-68
2024/04/01 01:16:30;;;;;;;0.75;0.50;;;;;;;;;;5029396;28;20023;-68
2024/04/01 01:18:55;;;;;;;1.52;0.60;;;;;;;;;;5029115;28;20101;-68
2024/04/01 01:21:20;;;;;;;1.10;0.60;;;;;;;;;;5029354;28;20135;-69
2024/04/01 01:23:45;;;;;;;8.27;0.60;;;;;;;;;;5028657;28;20024;-68
2024/04/01 01:26:10;;;;;;;4.07;1.10;;;;;;;;;;5028287;28;20090;-68
2024/04/01 01:28:36;;;;;;;3.00;0.70;;;;;;;;;;5027693;28;20735;-68
2024/04/01 01:31:01;;;;;;;3.50;0.50;;;;;;;;;;5029726;28;20256;-68
2024/04/01 01:33:27;;;;;;;1.20;0.55;;;;;;;;;;5028364;28;20017;-68
2024/04/01 01:35:52;;;;;;;2.22;0.60;;;;;;;;;;5022988;28;20494;-68
2024/04/01 01:38:18;;;;;;;0.98;0.50;;;;;;;;;;5028838;28;20025;-68
2024/04/01 01:40:43;;;;;;;1.88;0.60;;;;;;;;;;5028769;28;20021;-68
2024/04/01 01:43:08;;;;;;;3.13;0.98;;;;;;;;;;5029662;28;20030;-68
2024/04/01 01:45:34;;;;;;;4.13;0.82;;;;;;;;;;5028364;28;20284;-68
2024/04/01 01:47:59;;;;;;;1.77;0.60;;;;;;;;;;5029606;28;20030;-69
2024/04/01 01:50:24;;;;;;;2.20;0.80;;;;;;;;;;5028853;28;20280;-68
2024/04/01 01:52:50;;;;;;;3.67;0.80;;;;;;;;;;5027961;28;20044;-69
2024/04/01 01:55:15;;;;;;;2.90;0.77;;;;;;;;;;5029187;28;20275;-68
2024/04/01 01:57:40;;;;;;;4.45;0.98;;;;;;;;;;5029287;28;20021;-68
2024/04/01 02:00:05;;;;;;;2.60;0.70;;;;;;;;;;5028216;28;20013;-68
2024/04/01 02:02:32;;;;;;;3.42;0.80;;;;;;;;;;5028782;28;20640;-68
2024/04/01 02:04:57;;;;;;;5.63;0.88;;;;;;;;;;5029039;28;20030;-69
2024/04/01 02:07:22;;;;;;;2.73;0.90;;;;;;;;;;5026921;28;20416;-68
2024/04/01 02:09:47;;;;;;;4.50;0.90;;;;;;;;;;5027508;28;20280;-69
2024/04/01 02:12:12;;;;;;;2.23;0.70;;;;;;;;;;5028344;28;20256;-69
2024/04/01 02:14:38;;;;;;;4.33;0.70;;;;;;;;;;5028360;28;20282;-68
2024/04/01 02:17:04;;;;;;;3.03;0.57;;;;;;;;;;5027429;28;20291;-68
2024/04/01 02:19:30;;;;;;;4.07;0.93;;;;;;;;;;5032967;28;20029;-68
2024/04/01 02:21:55;;;;;;;1.35;0.65;;;;;;;;;;5032909;28;20096;-68
2024/04/01 02:24:20;;;;;;;3.80;1.02;;;;;;;;;;5031700;28;20022;-68
2024/04/01 02:26:48;;;;;;;1.43;0.80;;;;;;;;;;5033051;28;20022;-68
2024/04/01 02:29:14;;;;;;;4.90;1.02;;;;;;;;;;5030670;28;20248;-69
2024/04/01 02:31:39;;;;;;;1.75;0.75;;;;;;;;;;5032327;28;20025;-69
2024/04/01 02:34:05;;;;;;;4.05;0.60;;;;;;;;;;5032106;28;20017;-68
2024/04/01 02:36:30;;;;;;;1.27;0.57;;;;;;;;;;5032431;28;20025;-68
2024/04/01 02:38:56;;;;;;;1.50;0.70;;;;;;;;;;5032746;28;20024;-68
2024/04/01 02:41:21;;;;;;;2.77;0.53;;;;;;;;;;5030994;28;20013;-68
2024/04/01 02:43:46;;;;;;;0.98;0.63;;;;;;;;;;5032286;28;20268;-68
2024/04/01 02:46:12;;;;;;;5.70;0.63;;;;;;;;;;5029544;28;20037;-68
2024/04/01 02:48:37;;;;;;;1.20;0.70;;;;;;;;;;5032145;28;20017;-69
2024/04/01 02:51:02;;;;;;;4.87;0.80;;;;;;;;;;5032710;28;20113;-68
2024/04/01 02:53:28;;;;;;;4.07;1.73;;;;;;;;;;5032123;28;20244;-68
2024/04/01 02:55:54;;;;;;;5.03;1.07;;;;;;;;;;5032364;28;20499;-68
2024/04/01 02:58:19;;;;;;;2.63;0.73;;;;;;;;;;5030943;28;20279;-69
2024/04/01 03:00:45;;;;;;;3.33;1.47;;;;;;;;;;5030985;28;20071;-69
2024/04/01 03:03:11;;;;;;;6.68;1.55;;;;;;;;;;5030896;28;20638;-69
2024/04/01 03:05:38;;;;;;;2.88;0.80;;;;;;;;;;5031868;28;20029;-68
2024/04/01 03:08:04;;;;;;;1.70;0.80;;;;;;;;;;5032584;28;20502;-68
2024/04/01 03:10:29;;;;;;;3.30;1.10;;;;;;;;;;5031278;28;20029;-68
2024/04/01 03:12:55;;;;;;;3.83;1.05;;;;;;;;;;5030864;28;20018;-68
2024/04/01 03:15:20;;;;;;;1.73;1.00;;;;;;;;;;5032027;28;20101;-68
2024/04/01 03:17:45;;;;;;;1.27;0.80;;;;;;;;;;5031191;28;20017;-68
2024/04/01 03:20:11;;;;;;;4.15;0.70;;;;;;;;;;5032298;28;20480;-68
2024/04/01 03:22:37;;;;;;;1.83;0.85;;;;;;;;;;5031810;28;20029;-68
2024/04/01 03:25:02;;;;;;;3.70;0.80;;;;;;;;;;5031869;28;20025;-68
2024/04/01 03:27:27;;;;;;;1.48;0.75;;;;;;;;;;5030301;28;20480;-69
2024/04/01 03:29:53;;;;;;;2.22;0.60;;;;;;;;;;5030706;28;20020;-68
2024/04/01 03:32:18;;;;;;;4.82;0.80;;;;;;;;;;5031929;28;20013;-68
2024/04/01 03:34:50;;;;;;;2.30;0.70;;;;;;;;;;5031534;28;20029;-69
2024/04/01 03:37:15;;;;;;;4.47;1.27;;;;;;;;;;5031184;28;20303;-68
2024/04/01 03:39:44;;;;;;;5.37;1.10;;;;;;;;;;5030212;28;20277;-69
2024/04/01 03:42:10;;;;;;;5.80;0.90;;;;;;;;;;5031360;28;20859;-69
2024/04/01 03:44:35;;;;;;;3.50;1.30;;;;;;;;;;5030120;28;20435;-68
2024/04/01 03:47:01;;;;;;;4.22;1.17;;;;;;;;;;5031329;28;20030;-68
2024/04/01 03:49:26;;;;;;;4.83;0.60;;;;;;;;;;5031266;28;20195;-68
2024/04/01 03:51:51;;;;;;;2.77;0.70;;;;;;;;;;5028090;28;20285;-68
2024/04/01 03:54:16;;;;;;;2.60;0.77;;;;;;;;;;5031319;28;20300;-69
2024/04/01 03:56:41;;;;;;;2.67;0.73;;;;;;;;;;5031252;28;20757;-69
2024/04/01 03:59:08;;;;;;;6.20;1.00;;;;;;;;;;5030574;28;20083;-68
2024/04/01 04:01:33;;;;;;;8.88;0.90;;;;;;;;;;5030018;28;20100;-68
2024/04/01 04:03:59;;;;;;;1.60;0.65;;;;;;;;;;5031022;28;20118;-68
2024/04/01 04:06:24;;;;;;;3.00;1.30;;;;;;;;;;5030941;28;20104;-69
2024/04/01 04:08:49;;;;;;;1.63;0.90;;;;;;;;;;5029734;28;20025;-68
2024/04/01 04:11:15;;;;;;;9.13;2.95;;;;;;;;;;5022466;28;20307;-68
2024/04/01 04:13:40;;;;;;;1.63;0.88;;;;;;;;;;5030136;28;20666;-69
2024/04/01 04:16:06;;;;;;;6.53;1.05;;;;;;;;;;5023879;28;20071;-69
2024/04/01 04:18:31;;;;;;;2.35;1.00;;;;;;;;;;5031740;28;20025;-69
2024/04/01 04:20:56;;;;;;;1.77;0.85;;;;;;;;;;5030549;28;20029;-69
2024/04/01 04:23:22;;;;;;;2.13;0.80;;;;;;;;;;5030006;28;20043;-68
2024/04/01 04:25:47;;;;;;;0.98;0.60;;;;;;;;;;5030543;28;20150;-69
2024/04/01 04:28:13;;;;;;;5.63;1.30;;;;;;;;;;5028613;28;20461;-68
2024/04/01 04:30:38;;;;;;;3.55;0.90;;;;;;;;;;5030446;28;20295;-68
2024/04/01 04:33:03;;;;;;;1.50;0.60;;;;;;;;;;5029998;28;20585;-68
2024/04/01 04:35:28;;;;;;;2.10;1.00;;;;;;;;;;5030336;28;20268;-68
2024/04/01 04:37:54;;;;;;;2.53;0.90;;;;;;;;;;5028817;28;20033;-68
2024/04/01 04:40:19;;;;;;;1.92;0.98;;;;;;;;;;5029092;28;20320;-69
2024/04/01 04:42:45;;;;;;;2.88;0.93;;;;;;;;;;5029881;28;20131;-68
2024/04/01 04:45:10;;;;;;;3.92;0.63;;;;;;;;;;5029316;28;20025;-68
2024/04/01 04:47:36;;;;;;;1.63;0.70;;;;;;;;;;5028857;28;20439;-69
2024/04/01 04:50:02;;;;;;;4.65;0.55;;;;;;;;;;5030424;28;20005;-69
2024/04/01 04:52:27;;;;;;;3.50;0.98;;;;;;;;;;5029758;28;20063;-68
2024/04/01 04:54:52;;;;;;;2.40;0.80;;;;;;;;;;5029820;28;20056;-69
2024/04/01 04:57:18;;;;;;;2.00;0.90;;;;;;;;;;5029861;28;20765;-69
2024/04/01 04:59:43;;;;;;;3.87;0.80;;;;;;;;;;5029599;28;20268;-68
2024/04/01 05:02:08;;;;;;;2.80;0.80;;;;;;;;;;5028288;28;20252;-68
2024/04/01 05:04:34;;;;;;;3.13;0.80;;;;;;;;;;5031258;28;20735;-68
2024/04/01 05:06:59;;;;;;;2.38;0.80;;;;;;;;;;5029429;28;20272;-68
2024/04/01 05:09:24;;;;;;;3.08;0.77;;;;;;;;;;5023558;28;20013;-69
2024/04/01 05:11:49;;;;;;;1.33;0.60;;;;;;;;;;5027198;28;20048;-69
2024/04/01 05:14:15;;;;;;;1.27;0.50;;;;;;;;;;5027862;28;20260;-68
2024/04/01 05:16:40;;;;;;;4.73;0.70;;;;;;;;;;5028092;28;20256;-69
2024/04/01 05:19:07;;;;;;;3.22;0.95;;;;;;;;;;5026938;28;20276;-69
2024/04/01 05:21:32;;;;;;;2.35;0.60;;;;;;;;;;5028030;28;20120;-69
2024/04/01 05:23:57;;;;;;;2.15;0.70;;;;;;;;;;5025800;28;20531;-69
2024/04/01 05:26:22;;;;;;;5.33;0.87;;;;;;;;;;5027883;28;20159;-68
2024/04/01 05:28:48;;;;;;;1.83;0.77;;;;;;;;;;5026372;28;20272;-69
2024/04/01 05:31:13;;;;;;;2.20;0.80;;;;;;;;;;5023756;28;20034;-68
2024/04/01 05:33:38;;;;;;;6.32;1.02;;;;;;;;;;5026633;28;20112;-69
2024/04/01 05:36:04;;;;;;;2.42;0.63;;;;;;;;;;5027507;28;20733;-69
2024/04/01 05:38:29;;;;;;;3.17;0.73;;;;;;;;;;5027368;28;20384;-69
2024/04/01 05:40:55;;;;;;;2.55;0.47;;;;;;;;;;5027474;28;20025;-69
2024/04/01 05:43:20;;;;;;;2.75;1.00;;;;;;;;;;5025456;28;20028;-69
2024/04/01 05:45:45;;;;;;;2.43;1.07;;;;;;;;;;5021917;28;20522;-69
2024/04/01 05:48:10;;;;;;;4.27;0.90;;;;;;;;;;5027611;28;20248;-69
2024/04/01 05:50:35;;;;;;;2.57;0.80;;;;;;;;;;5022053;28;20756;-69
2024/04/01 05:53:00;;;;;;;2.97;1.02;;;;;;;;;;5027017;28;20256;-69
2024/04/01 05:55:26;;;;;;;1.53;0.63;;;;;;;;;;5026603;28;20587;-69
2024/04/01 05:57:51;;;;;;;4.73;1.20;;;;;;;;;;5026970;28;20264;-69
2024/04/01 06:00:16;;;;;;;7.13;1.20;;;;;;;;;;5024487;28;20829;-69
2024/04/01 06:02:41;;;;;;;4.78;1.10;;;;;;;;;;5028078;28;20271;-69
2024/04/01 06:05:06;;;;;;;2.90;1.00;;;;;;;;;;5026540;28;20392;-69
2024/04/01 06:07:32;;;;;;;3.03;1.15;;;;;;;;;;5027118;28;20321;-69
2024/04/01 06:09:58;;;;;;;2.05;0.80;;;;;;;;;;5027216;28;20155;-69
2024/04/01 06:12:23;;;;;;;3.47;1.30;;;;;;;;;;5027032;28;20009;-69
2024/04/01 06:14:49;;;;;;;3.67;0.90;;;;;;;;;;5020463;28;20391;-69
2024/04/01 06:17:14;;;;;;;3.07;0.87;;;;;;;;;;5017701;28;20393;-69
2024/04/01 06:19:39;;;;;;;1.67;0.90;;;;;;;;;;5019908;28;20512;-69
2024/04/01 06:22:04;;;;;;;2.13;0.82;;;;;;;;;;5020907;28;20028;-69
2024/04/01 06:24:29;;;;;;;4.45;0.85;;;;;;;;;;5026718;28;20055;-69
2024/04/01 06:26:55;;;;;;;4.85;0.98;;;;;;;;;;5026502;28;20037;-69
2024/04/01 06:29:20;;;;;;;4.53;1.10;;;;;;;;;;5024152;28;20026;-69
2024/04/01 06:31:45;;;;;;;2.75;1.05;;;;;;;;;;5025647;28;20856;-69
2024/04/01 06:34:10;;;;;;;6.27;1.00;;;;;;;;;;5024293;28;20033;-69
2024/04/01 06:36:36;;;;;;;3.88;0.85;;;;;;;;;;5027475;28;20280;-69
2024/04/01 06:39:04;;;;;;;3.38;1.08;;;;;;;;;;5028778;28;20025;-69
2024/04/01 06:41:29;;;;;;;3.22;1.13;;;;;;;;;;5027568;28;20018;-69
2024/04/01 06:43:55;;;;;;;2.57;1.10;;;;;;;;;;5026722;28;20013;-69
2024/04/01 06:46:20;;;;;;;3.08;1.90;;;;;;;;;;5019426;28;20350;-69
2024/04/01 06:48:45;;;;;;;5.30;1.80;;;;;;;;;;5027655;28;20036;-69
2024/04/01 06:51:10;;;;;;;3.10;1.13;;;;;;;;;;5028955;28;20384;-69
2024/04/01 06:53:35;;;;;;;1.70;1.00;;;;;;;;;;5029520;28;20283;-70
2024/04/01 06:56:00;;;;;;;2.90;1.05;;;;;;;;;;5028247;28;20474;-69
2024/04/01 06:58:26;;;;;;;5.60;1.50;;;;;;;;;;5027844;28;20096;-69
2024/04/01 07:00:51;;;;;;;3.15;1.58;;;;;;;;;;5027368;28;20260;-69
2024/04/01 07:03:16;;;;;;;4.75;1.40;;;;;;;;;;5030254;28;20456;-68
2024/04/01 07:05:42;;;;;;;2.63;1.10;;;;;;;;;;5031413;28;20028;-68
2024/04/01 07:08:07;;;;;;;3.55;1.50;;;;;;;;;;5032059;28;20017;-68
2024/04/01 07:10:33;;;;;;;5.28;2.05;;;;;;;;;;5031463;28;20025;-68
2024/04/01 07:12:58;;;;;;;7.55;1.60;;;;;;;;;;5031164;28;20100;-69
2024/04/01 07:15:24;;;;;;;3.22;1.73;;;;;;;;;;5032103;28;20067;-69
2024/04/01 07:17:49;;;;;;;7.82;1.90;;;;;;;;;;5030408;28;20158;-68
2024/04/01 07:20:14;;;;;;;4.55;1.83;;;;;;;;;;5032223;28;20049;-69
2024/04/01 07:22:39;;;;;;;3.80;1.73;;;;;;;;;;5031962;28;20037;-69
2024/04/01 07:25:05;;;;;;;5.00;1.40;;;;;;;;;;5030992;28;20375;-69
2024/04/01 07:27:34;;;;;;;7.75;2.08;;;;;;;;;;5030805;28;20488;-69
2024/04/01 07:29:59;;;;;;;6.95;1.92;;;;;;;;;;5027213;28;20373;-69
2024/04/01 07:32:25;;;;;;;4.93;1.48;;;;;;;;;;5028670;28;20021;-69
2024/04/01 07:34:50;;;;;;;3.35;1.58;;;;;;;;;;5030837;28;20017;-69
2024/04/01 07:37:16;;;;;;;3.70;1.85;;;;;;;;;;5031147;28;20080;-69
2024/04/01 07:39:41;;;;;;;3.80;1.37;;;;;;;;;;5030787;28;20527;-69
2024/04/01 07:42:06;;;;;;;7.32;1.65;;;;;;;;;;5030911;28;20287;-69
2024/04/01 07:44:31;;;;;;;3.70;1.87;;;;;;;;;;5029294;28;20033;-69
2024/04/01 07:46:56;;;;;;;2.83;1.40;;;;;;;;;;5028276;28;20797;-69
2024/04/01 07:49:22;;;;;;;2.57;1.77;;;;;;;;;;5030610;28;20264;-69
2024/04/01 07:51:47;;;;;;;9.40;2.00;;;;;;;;;;5030256;28;20624;-69
2024/04/01 07:54:12;;;;;;;6.23;3.30;;;;;;;;;;5028449;28;20017;-69
2024/04/01 07:56:37;;;;;;;12.02;4.45;;;;;;;;;;5029507;28;20335;-69
2024/04/01 07:59:03;;;;;;;10.17;3.40;;;;;;;;;;5029011;28;20433;-69
2024/04/01 08:01:29;;;;;;;8.65;3.05;;;;;;;;;;5033474;28;20326;-69
2024/04/01 08:03:55;;;;;;;8.07;2.60;;;;;;;;;;5026351;28;20480;-69
2024/04/01 08:06:20;;;;;;;3.67;2.25;;;;;;;;;;5029373;28;20033;-69
2024/04/01 08:08:46;;;;;;;6.97;2.75;;;;;;;;;;5028923;28;20132;-69
2024/04/01 08:11:11;;;;;;;8.65;2.33;;;;;;;;;;5023425;28;20105;-69
2024/04/01 08:13:37;;;;;;;5.50;2.00;;;;;;;;;;5030569;28;20028;-69
2024/04/01 08:16:03;;;;;;;5.50;1.58;;;;;;;;;;5029830;28;20321;-68
2024/04/01 08:18:28;;;;;;;8.27;2.50;;;;;;;;;;5028994;28;20022;-69
2024/04/01 08:20:56;;;;;;;4.40;2.22;;;;;;;;;;5029772;28;20420;-69
2024/04/01 08:23:21;;;;;;;6.07;2.72;;;;;;;;;;5030546;28;20530;-69
2024/04/01 08:25:46;;;;;;;3.35;2.45;;;;;;;;;;5030057;28;20057;-69
2024/04/01 08:28:11;;;;;;;3.38;2.05;;;;;;;;;;5030861;28;20009;-68
2024/04/01 08:30:36;;;;;;;2.77;1.30;;;;;;;;;;5030794;28;20147;-68
2024/04/01 08:33:02;;;;;;;9.03;2.83;;;;;;;;;;5030238;28;20257;-68
2024/04/01 08:35:27;;;;;;;3.38;1.65;;;;;;;;;;5028028;28;20279;-68
2024/04/01 08:37:52;;;;;;;2.97;1.50;;;;;;;;;;5030460;28;20025;-68
2024/04/01 08:40:17;;;;;;;8.03;2.00;;;;;;;;;;5028035;28;20275;-68
2024/04/01 08:42:44;;;;;;;6.70;2.45;;;;;;;;;;5028638;28;20267;-68
2024/04/01 08:45:10;;;;;;;5.45;3.00;;;;;;;;;;5028529;28;20029;-69
2024/04/01 08:47:36;;;;;;;11.70;3.67;;;;;;;;;;5027675;28;20112;-69
2024/04/01 08:50:03;;;;;;;11.90;3.70;;;;;;;;;;5028470;28;20028;-68
2024/04/01 08:52:31;;;;;;;10.13;3.95;;;;;;;;;;5022352;28;20014;-68
2024/04/01 08:54:56;;;;;;;6.40;3.60;;;;;;;;;;5028191;28;20377;-68
2024/04/01 08:57:21;;;;;;;6.20;3.90;;;;;;;;;;5027585;28;20023;-68
2024/04/01 08:59:49;;;;;;;4.63;2.73;;;;;;;;;;5028059;28;20265;-68
2024/04/01 09:02:14;;;;;;;4.68;3.20;;;;;;;;;;5028060;28;20735;-68
2024/04/01 09:04:39;;;;;;;10.95;3.83;;;;;;;;;;5026919;28;20036;-68
2024/04/01 09:07:08;;;;;;;4.53;3.35;;;;;;;;;;5026370;28;20079;-68
2024/04/01 09:09:33;;;;;;;9.25;3.38;;;;;;;;;;5026432;28;20018;-68
2024/04/01 09:11:58;;;;;;;3.40;1.48;;;;;;;;;;5027806;28;20021;-68
2024/04/01 09:14:23;;;;;;;1.73;1.33;;;;;;;;;;5026837;28;20646;-68
2024/04/01 09:16:49;;;;;;;6.97;3.87;;;;;;;;;;5027437;28;20033;-67
2024/04/01 09:19:15;;;;;;;12.10;4.67;;;;;;;;;;5022886;28;20260;-67
2024/04/01 09:21:40;;;;;;;6.90;4.15;;;;;;;;;;5025796;28;20804;-68
2024/04/01 09:24:06;;;;;;;5.85;3.72;;;;;;;;;;5026344;28;20021;-68
2024/04/01 09:26:32;;;;;;;7.55;3.65;;;;;;;;;;5026822;28;20550;-68
2024/04/01 09:28:57;;;;;;;5.40;3.33;;;;;;;;;;5027467;28;20032;-68
2024/04/01 09:31:22;;;;;;;8.88;4.10;;;;;;;;;;5027013;28;20614;-68
2024/04/01 09:33:48;;;;;;;5.13;2.90;;;;;;;;;;5025043;28;20014;-67
2024/04/01 09:36:13;;;;;;;6.63;3.03;;;;;;;;;;5027219;28;20040;-67
2024/04/01 09:38:39;;;;;;;6.15;3.60;;;;;;;;;;5024273;28;20048;-68
2024/04/01 09:41:04;;;;;;;4.82;2.90;;;;;;;;;;5028928;28;20025;-68
2024/04/01 09:43:30;;;;;;;6.67;3.57;;;;;;;;;;5029503;28;20013;-69
2024/04/01 09:45:55;;;;;;;4.45;3.15;;;;;;;;;;5028051;28;20287;-69
2024/04/01 09:48:26;;;;;;;7.53;3.17;;;;;;;;;;5029506;28;20108;-69
2024/04/01 09:50:57;;;;;;;4.25;3.20;;;;;;;;;;5028769;28;20032;-68
2024/04/01 09:53:25;;;;;;;7.18;4.38;;;;;;;;;;5028507;28;20083;-69
2024/04/01 09:55:59;;;;;;;5.93;4.03;;;;;;;;;;5028675;28;20038;-69
2024/04/01 09:58:34;;;;;;;6.18;3.70;;;;;;;;;;5023618;28;20022;-69
2024/04/01 10:01:32;;;;;;;8.13;5.53;;;;;;;;;;5026798;28;20017;-69
2024/04/01 10:04:00;;;;;;;8.90;5.65;;;;;;;;;;5026865;28;20026;-69
2024/04/01 10:06:34;;;;;;;7.57;5.60;;;;;;;;;;5028562;28;20477;-69
2024/04/01 10:09:18;;;;;;;6.82;4.93;;;;;;;;;;5027795;28;20022;-69
2024/04/01 10:11:52;;;;;;;7.35;5.18;;;;;;;;;;5023657;28;20026;-69
2024/04/01 10:14:32;;;;;;;9.95;6.65;;;;;;;;;;5024124;28;20020;-69
2024/04/01 10:16:57;;;;;;;15.88;7.90;;;;;;;;;;5019873;28;20147;-69
2024/04/01 10:19:31;;;;;;;9.10;6.32;;;;;;;;;;5024773;28;20100;-69
2024/04/01 10:22:13;;;;;;;11.07;5.47;;;;;;;;;;5028927;28;20022;-69
2024/04/01 10:24:52;;;;;;;9.77;6.00;;;;;;;;;;5026831;28;20128;-69
2024/04/01 10:27:31;;;;;;;12.40;5.85;;;;;;;;;;5026842;28;20357;-69
2024/04/01 10:30:15;;;;;;;8.60;6.10;;;;;;;;;;5028451;28;20037;-69
2024/04/01 10:32:59;;;;;;;12.52;6.22;;;;;;;;;;5028665;28;20033;-69
2024/04/01 10:35:37;;;;;;;8.40;4.93;;;;;;;;;;5029232;28;20586;-69
2024/04/01 10:38:21;;;;;;;7.00;4.10;;;;;;;;;;5028480;28;20620;-69
2024/04/01 10:41:08;;;;;;;7.05;3.30;;;;;;;;;;5030928;28;20021;-69
2024/04/01 10:43:49;;;;;;;4.88;3.50;;;;;;;;;;5031428;28;20028;-69
2024/04/01 10:46:34;;;;;;;4.63;3.33;;;;;;;;;;5028159;28;20132;-69
2024/04/01 10:49:27;;;;;;;6.72;2.70;;;;;;;;;;5032281;28;20017;-69
2024/04/01 10:52:21;;;;;;;5.05;2.83;;;;;;;;;;5031747;28;20021;-69
2024/04/01 10:55:02;;;;;;;5.25;2.45;;;;;;;;;;5032010;28;20031;-69
2024/04/01 10:57:46;;;;;;;6.35;2.70;;;;;;;;;;5029857;28;20029;-69
2024/04/01 11:00:30;;;;;;;4.68;2.30;;;;;;;;;;5030785;28;20388;-69
2024/04/01 11:03:11;;;;;;;3.97;2.63;;;;;;;;;;5032014;28;20436;-69
2024/04/01 11:05:55;;;;;;;10.27;3.40;;;;;;;;;;5032350;28;20029;-69
2024/04/01 11:08:39;;;;;;;6.25;3.45;;;;;;;;;;5035703;28;20053;-69
2024/04/01 11:11:26;;;;;;;7.80;2.33;;;;;;;;;;5032007;28;20017;-69
2024/04/01 11:13:53;;;;;;;2.78;2.08;;;;;;;;;;5030807;28;20037;-69
2024/04/01 11:16:20;;;;;;;4.80;2.70;;;;;;;;;;5026275;28;20025;-69
2024/04/01 11:18:45;;;;;;;4.75;2.10;;;;;;;;;;5032214;28;20029;-69
2024/04/01 11:21:11;;;;;;;4.43;2.80;;;;;;;;;;5028724;28;20028;-69
2024/04/01 11:23:42;;;;;;;6.27;3.10;;;;;;;;;;5025708;28;20025;-69
2024/04/01 11:26:07;;;;;;;3.65;2.47;;;;;;;;;;5031718;28;20964;-69
2024/04/01 11:28:52;;;;;;;4.27;2.53;;;;;;;;;;5035213;28;20037;-69
2024/04/01 11:31:18;;;;;;;6.93;3.05;;;;;;;;;;5027949;28;20269;-69
2024/04/01 11:34:07;;;;;;;5.80;2.70;;;;;;;;;;5023328;28;20543;-69
2024/04/01 11:36:43;;;;;;;6.57;3.75;;;;;;;;;;5028605;28;20053;-69
2024/04/01 11:39:12;;;;;;;6.90;3.35;;;;;;;;;;5027285;28;20052;-69
2024/04/01 11:41:41;;;;;;;6.97;3.72;;;;;;;;;;5029311;28;20108;-70
2024/04/01 11:44:07;;;;;;;5.40;3.33;;;;;;;;;;5030950;28;20024;-69
2024/04/01 11:46:32;;;;;;;6.30;3.45;;;;;;;;;;5029803;28;20396;-70
2024/04/01 11:48:57;;;;;;;7.75;3.72;;;;;;;;;;5029448;28;20112;-70
2024/04/01 11:51:32;;;;;;;6.10;3.40;;;;;;;;;;5025293;28;20029;-69
2024/04/01 11:53:57;;;;;;;6.10;3.25;;;;;;;;;;5028148;28;20762;-69
2024/04/01 11:56:38;;;;;;;6.50;3.15;;;;;;;;;;5028816;28;20040;-69
2024/04/01 11:59:05;;;;;;;12.15;4.07;;;;;;;;;;5029982;28;20147;-70
2024/04/01 12:01:32;;;;;;;8.10;2.60;;;;;;;;;;5029432;28;20017;-69
2024/04/01 12:03:57;;;;;;;14.18;3.72;;;;;;;;;;5026024;28;20070;-69
2024/04/01 12:06:23;;;;;;;5.93;2.33;;;;;;;;;;5030659;28;20025;-69
2024/04/01 12:08:49;;;;;;;10.20;2.95;;;;;;;;;;5030770;28;20751;-69
2024/04/01 12:11:15;;;;;;;11.20;2.40;;;;;;;;;;5027073;28;20045;-69
2024/04/01 12:13:40;;;;;;;5.20;2.75;;;;;;;;;;5029708;28;20485;-70
2024/04/01 12:16:08;;;;;;;6.40;1.92;;;;;;;;;;5029464;28;20108;-69
2024/04/01 12:18:44;;;;;;;3.70;1.55;;;;;;;;;;5027669;28;20025;-69
2024/04/01 12:21:09;;;;;;;5.50;1.55;;;;;;;;;;5027469;28;20025;-69
2024/04/01 12:23:36;;;;;;;3.97;2.30;;;;;;;;;;5029933;28;20044;-69
2024/04/01 12:26:06;;;;;;;5.45;1.73;;;;;;;;;;5024056;28;20025;-69
2024/04/01 12:28:33;;;;;;;5.20;2.03;;;;;;;;;;5021491;28;20038;-69
2024/04/01 12:30:58;;;;;;;2.05;1.15;;;;;;;;;;5028367;28;20044;-69
2024/04/01 12:33:26;;;;;;;6.43;1.27;;;;;;;;;;5029852;28;20461;-69
2024/04/01 12:35:52;;;;;;;5.20;2.10;;;;;;;;;;5028309;28;20024;-69
2024/04/01 12:38:20;;;;;;;2.67;1.13;;;;;;;;;;5030364;28;20025;-69
2024/04/01 12:40:46;;;;;;;11.90;1.83;;;;;;;;;;5029933;28;20033;-69
2024/04/01 12:43:15;;;;;;;4.85;1.80;;;;;;;;;;5025666;28;20700;-69
2024/04/01 12:45:41;;;;;;;5.07;1.90;;;;;;;;;;5027882;28;20037;-69
2024/04/01 12:48:10;;;;;;;5.93;1.88;;;;;;;;;;5030364;28;20014;-69
2024/04/01 12:50:36;;;;;;;8.23;2.08;;;;;;;;;;5028098;28;20053;-70
2024/04/01 12:53:01;;;;;;;4.35;1.67;;;;;;;;;;5030338;28;20026;-69
2024/04/01 12:55:28;;;;;;;5.88;1.30;;;;;;;;;;5029390;28;20071;-69
2024/04/01 12:57:54;;;;;;;3.40;1.00;;;;;;;;;;5028792;28;20038;-69
2024/04/01 13:00:23;;;;;;;4.20;1.40;;;;;;;;;;5026462;28;20489;-69
2024/04/01 13:03:00;;;;;;;4.15;1.20;;;;;;;;;;5029440;28;20257;-69
2024/04/01 13:05:25;;;;;;;3.88;1.02;;;;;;;;;;5029452;28;20033;-69
2024/04/01 13:08:17;;;;;;;2.60;1.15;;;;;;;;;;5028355;28;20704;-69
2024/04/01 13:10:42;;;;;;;2.83;0.95;;;;;;;;;;5019754;28;20116;-70
2024/04/01 13:13:10;;;;;;;2.35;1.08;;;;;;;;;;5029826;28;20100;-69
2024/04/01 13:15:52;;;;;;;3.88;0.90;;;;;;;;;;5028134;28;20161;-69
2024/04/01 13:18:26;;;;;;;3.25;1.27;;;;;;;;;;5027176;28;20116;-69
2024/04/01 13:20:51;;;;;;;4.68;1.33;;;;;;;;;;5029284;28;20044;-69
2024/04/01 13:23:21;;;;;;;1.52;0.82;;;;;;;;;;5029370;28;20018;-69
2024/04/01 13:26:06;;;;;;;5.53;1.40;;;;;;;;;;5028269;28;20459;-69
2024/04/01 13:28:47;;;;;;;5.63;1.70;;;;;;;;;;5028998;28;20029;-70
2024/04/01 13:31:12;;;;;;;4.13;2.03;;;;;;;;;;5028846;28;20284;-68
2024/04/01 13:33:37;;;;;;;13.15;5.53;;;;;;;;;;5028974;28;20025;-69
2024/04/01 13:36:13;;;;;;;7.35;2.47;;;;;;;;;;5030392;28;20061;-69
2024/04/01 13:38:41;;;;;;;8.20;1.60;;;;;;;;;;5027778;28;20100;-69
2024/04/01 13:41:18;;;;;;;2.88;1.38;;;;;;;;;;5027534;28;20057;-69
2024/04/01 13:43:50;;;;;;;21.73;2.28;;;;;;;;;;5027954;28;20477;-69
2024/04/01 13:46:33;;;;;;;3.67;1.30;;;;;;;;;;5027999;28;20026;-69
2024/04/01 13:49:27;;;;;;;3.10;1.58;;;;;;;;;;5028262;28;20580;-69
2024/04/01 13:52:08;;;;;;;3.10;1.00;;;;;;;;;;5029274;28;20493;-69
2024/04/01 13:54:35;;;;;;;5.15;1.52;;;;;;;;;;5027184;28;20028;-69
2024/04/01 13:57:13;;;;;;;6.13;1.27;;;;;;;;;;5028521;28;20590;-69
2024/04/01 13:59:38;;;;;;;5.95;1.73;;;;;;;;;;5026437;28;20159;-68
2024/04/01 14:02:22;;;;;;;4.50;1.60;;;;;;;;;;5028385;28;20120;-69
2024/04/01 14:05:06;;;;;;;1.85;0.88;;;;;;;;;;5028174;28;20018;-69
2024/04/01 14:07:49;;;;;;;3.67;1.83;;;;;;;;;;5027988;28;20053;-69
2024/04/01 14:10:33;;;;;;;10.27;2.58;;;;;;;;;;5023379;28;20092;-69
2024/04/01 14:13:08;;;;;;;5.53;2.88;;;;;;;;;;5030687;28;20111;-69
2024/04/01 14:15:38;;;;;;;2.90;1.20;;;;;;;;;;5034473;28;20101;-68
2024/04/01 14:18:10;;;;;;;1.73;0.90;;;;;;;;;;5034917;28;20021;-69
2024/04/01 14:20:40;;;;;;;8.13;1.90;;;;;;;;;;5034920;28;20395;-70
2024/04/01 14:23:05;;;;;;;4.32;1.90;;;;;;;;;;5030534;28;20028;-70
2024/04/01 14:25:40;;;;;;;3.03;1.23;;;;;;;;;;5033874;28;20029;-70
2024/04/01 14:28:06;;;;;;;5.25;1.65;;;;;;;;;;5035071;28;20036;-71
2024/04/01 14:30:31;;;;;;;5.43;1.70;;;;;;;;;;5032861;28;20407;-70
2024/04/01 14:32:56;;;;;;;5.32;2.05;;;;;;;;;;5034107;28;20272;-70
2024/04/01 14:35:21;;;;;;;7.63;1.35;;;;;;;;;;5035035;28;20025;-70
2024/04/01 14:37:46;;;;;;;6.78;1.80;;;;;;;;;;5031149;28;20039;-70
2024/04/01 14:40:12;;;;;;;3.30;1.42;;;;;;;;;;5034764;28;20021;-70
2024/04/01 14:42:37;;;;;;;2.45;1.80;;;;;;;;;;5034766;28;20033;-70
2024/04/01 14:45:03;;;;;;;8.57;1.42;;;;;;;;;;5035122;28;20021;-71
2024/04/01 14:47:28;;;;;;;2.80;1.60;;;;;;;;;;5035310;28;20116;-70